ADDS TAF Board (Experimental) INFO Settings
IDs: Format: Expanded Condensed

KDCA - Washington/National, VA, US

Issued at 2324 UTC 30 Sep 2016
Updated at 2347 UTC 30 Sep 2016
Time2252Z 01/00Z 01/01Z 01/02Z 01/03Z 01/04Z 01/05Z 01/06Z 01/07Z 01/08Z 01/09Z 01/10Z 01/11Z 01/12Z
Type OBS PRVL PRVL PRVL PRVL PRVL PRVL PRVL PRVL PRVL PRVL PRVL PRVL PRVL
VIS 6 2 2 2 2 2 2 2 2 2 2 2 2 3
CIG 8 8 8 8 8 8 8 8 8 8 8 8 8 8
Cover OVC OVC OVC OVC OVC OVC OVC OVC OVC OVC OVC OVC OVC OVC
FltCat IFR IFR IFR IFR IFR IFR IFR IFR IFR IFR IFR IFR IFR IFR
WX -DZ BR RA RA RA RA RA RA -SHRA -SHDZ -SHRA -SHDZ -SHRA -SHDZ -SHRA -SHDZ -SHRA -SHDZ -SHRA -SHDZ BR
WDir 50 50 50 50 50 50 50 50 50 50 50 50 50 60
WSpd 10 9 9 9 9 9 9 9 9 9 9 9 9 7
WGst -- -- -- -- -- -- -- -- -- -- -- -- -- --
R01/19
XWnd -8 -7 -7 -7 -7 -7 -7 -7 -7 -7 -7 -7 -7 -6
HWnd 6 5 5 5 5 5 5 5 5 5 5 5 5 3
R04/22
XWnd -4 -4 -4 -4 -4 -4 -4 -4 -4 -4 -4 -4 -4 -4
HWnd 9 8 8 8 8 8 8 8 8 8 8 8 8 6
R15/33
XWnd 10 9 9 9 9 9 9 9 9 9 9 9 9 7
HWnd -1 -0 -0 -0 -0 -0 -0 -0 -0 -0 -0 -0 -0 1

Raw TAF
KDCA 302324Z 0100/0124 05009KT 2SM RA OVC008
  FM010600 05009KT 2SM -SHRADZ OVC008
  FM011200 06007KT 3SM BR OVC008
  FM011600 12005KT P6SM BKN010
  FM011800 12005KT P6SM BKN025
  FM012100 14005KT P6SM BKN050


Raw METAR
KDCA 302252Z 05010KT 6SM -DZ BR OVC008 19/18 A3013 RMK AO2 SLP202 P0001 T01890183
KDCA 302247Z 06012KT 6SM -DZ BR OVC008 19/18 A3013 RMK AO2 P0000
KDCA 302221Z 04009KT 4SM -DZ BR OVC006 18/18 A3013 RMK AO2 LTG DSNT S-NW P0000 T01830183
KDCA 302210Z 04009KT 4SM VCTS -DZ BR OVC006 18/18 A3013 RMK AO2 LTG DSNT S AND SW P0000 T01830183
KDCA 302152Z 04010KT 4SM -DZ BR OVC006 18/18 A3012 RMK AO2 LTG DSNT S-NW SLP198 P0000 T01830183
KDCA 302124Z 04010KT 2 1/2SM -DZ BR OVC006 18/18 A3012 RMK AO2 LTG DSNT SW AND W P0000 T01780178
KDCA 302102Z 04010KT 2 1/2SM -DZ BR OVC006 18/18 A3012 RMK AO2 LTG DSNT SW P0000 T01830178
KDCA 302052Z 02010KT 3SM -DZ BR OVC006 18/18 A3012 RMK AO2 SLP200 P0000 60000 T01830178 55009

METAR Board
Radar Display
Forecast Discussion

TAF Board Legend

Potential Impact
Threat None Slight Moderate High
Visibility (sm) ≥5.1 5.1>X≥3 3>X≥1 <1
Ceiling (100 ft) ≥30.1 30.1>X≥10 10>X≥5 <5
Wind Speed (kt) <10 10≤X<20 20≤X<30 ≥30
Wind Gust (kt) <15 15≤X<25 25≤X<35 ≥35
Weather No Wx Reported VCTS,-TS,-FZRA,SN TS,FZRA +TS,+FZRA,+SN